Time;durP1;ratioP1;P1;durP2;ratioP2;P2;SDS_P1;SDS_P2;PMS_P1;PMS_P2;Temp;Humidity;BMP_temperature;BMP_pressure;BME280_temperature;BME280_humidity;BME280_pressure;Samples;Min_cycle;Max_cycle;Signal;HPM_P1;HPM_P2
2022/12/18 00:01:26;;;;;;;70.85;25.90;;;;;;;;;;5055525;28;20020;-71
2022/12/18 00:03:52;;;;;;;66.93;25.67;;;;;;;;;;5060459;28;20037;-70
2022/12/18 00:06:18;;;;;;;69.63;27.15;;;;;;;;;;5047654;28;20029;-71
2022/12/18 00:08:44;;;;;;;71.95;27.52;;;;;;;;;;5044775;28;20058;-70
2022/12/18 00:11:16;;;;;;;74.60;26.20;;;;;;;;;;5064869;28;20054;-70
2022/12/18 00:13:42;;;;;;;71.95;27.85;;;;;;;;;;5063280;28;20440;-70
2022/12/18 00:16:09;;;;;;;77.88;28.67;;;;;;;;;;5057916;28;20024;-71
2022/12/18 00:18:34;;;;;;;72.93;25.95;;;;;;;;;;5060023;28;20024;-71
2022/12/18 00:21:00;;;;;;;74.20;27.10;;;;;;;;;;5064587;28;20495;-70
2022/12/18 00:23:26;;;;;;;67.07;24.95;;;;;;;;;;5049115;28;20059;-71
2022/12/18 00:25:51;;;;;;;65.80;26.13;;;;;;;;;;5058191;28;20064;-70
2022/12/18 00:28:17;;;;;;;63.63;24.60;;;;;;;;;;5063566;28;20027;-71
2022/12/18 00:30:42;;;;;;;72.75;26.35;;;;;;;;;;5063195;28;20281;-71
2022/12/18 00:33:07;;;;;;;75.17;25.67;;;;;;;;;;5065352;28;20043;-70
2022/12/18 00:35:33;;;;;;;70.57;25.42;;;;;;;;;;5066156;28;20569;-71
2022/12/18 00:37:58;;;;;;;69.65;24.17;;;;;;;;;;5045672;28;20039;-71
2022/12/18 00:40:23;;;;;;;67.43;25.07;;;;;;;;;;5062711;28;20135;-71
2022/12/18 00:42:58;;;;;;;73.57;24.47;;;;;;;;;;5064798;28;20277;-70
2022/12/18 00:45:23;;;;;;;67.53;23.98;;;;;;;;;;5061298;28;20277;-70
2022/12/18 00:47:48;;;;;;;69.33;26.13;;;;;;;;;;5065049;28;20025;-71
2022/12/18 00:50:13;;;;;;;61.43;23.40;;;;;;;;;;5062213;28;20036;-71
2022/12/18 00:52:40;;;;;;;60.53;22.63;;;;;;;;;;5048141;28;20053;-71
2022/12/18 00:55:05;;;;;;;66.65;23.20;;;;;;;;;;5064463;28;20280;-71
2022/12/18 00:57:30;;;;;;;58.28;22.13;;;;;;;;;;5064747;28;20255;-70
2022/12/18 00:59:56;;;;;;;62.63;23.47;;;;;;;;;;5063467;28;20071;-71
2022/12/18 01:02:21;;;;;;;66.37;24.43;;;;;;;;;;5047099;28;20272;-71
2022/12/18 01:04:46;;;;;;;67.68;24.15;;;;;;;;;;5063129;28;20285;-70
2022/12/18 01:07:11;;;;;;;63.10;24.00;;;;;;;;;;5063519;28;20474;-71
2022/12/18 01:09:37;;;;;;;62.70;24.23;;;;;;;;;;5066678;28;20306;-71
2022/12/18 01:12:02;;;;;;;64.03;23.73;;;;;;;;;;5045915;28;20108;-71
2022/12/18 01:14:27;;;;;;;65.10;22.25;;;;;;;;;;5053855;28;20795;-71
2022/12/18 01:16:52;;;;;;;63.67;24.50;;;;;;;;;;5068442;28;20039;-70
2022/12/18 01:19:18;;;;;;;64.57;24.77;;;;;;;;;;5052655;28;20021;-71
2022/12/18 01:21:43;;;;;;;66.37;24.90;;;;;;;;;;5050718;28;20474;-71
2022/12/18 01:24:11;;;;;;;59.37;23.03;;;;;;;;;;5065787;28;20084;-71
2022/12/18 01:26:36;;;;;;;65.57;23.95;;;;;;;;;;5066473;28;20713;-70
2022/12/18 01:29:02;;;;;;;67.03;22.97;;;;;;;;;;5066139;28;20020;-71
2022/12/18 01:31:28;;;;;;;62.42;23.00;;;;;;;;;;5070627;28;20806;-72
2022/12/18 01:33:53;;;;;;;63.08;23.02;;;;;;;;;;5067483;28;20017;-71
2022/12/18 01:36:20;;;;;;;67.17;23.63;;;;;;;;;;5047094;28;20033;-69
2022/12/18 01:38:45;;;;;;;67.97;24.00;;;;;;;;;;5049135;28;20634;-71
2022/12/18 01:41:11;;;;;;;62.10;22.48;;;;;;;;;;5068351;28;20028;-71
2022/12/18 01:43:41;;;;;;;66.72;23.80;;;;;;;;;;5052566;28;20056;-71
2022/12/18 01:46:06;;;;;;;;;;;;;;;;;;5068017;28;20048;-71
2022/12/18 01:48:31;;;;;;;58.20;22.02;;;;;;;;;;5067323;28;19963;-71
2022/12/18 01:50:56;;;;;;;60.60;22.10;;;;;;;;;;5068690;28;20055;-71
2022/12/18 01:53:23;;;;;;;60.53;22.33;;;;;;;;;;5070463;28;20281;-70
2022/12/18 01:55:50;;;;;;;61.42;22.88;;;;;;;;;;5049378;28;20278;-71
2022/12/18 01:58:15;;;;;;;62.17;23.73;;;;;;;;;;5068425;28;21513;-71
2022/12/18 02:00:40;;;;;;;59.10;21.98;;;;;;;;;;5060636;28;20025;-71
2022/12/18 02:03:06;;;;;;;68.55;23.67;;;;;;;;;;5050465;28;20451;-71
2022/12/18 02:05:40;;;;;;;67.23;22.60;;;;;;;;;;5065776;28;20033;-72
2022/12/18 02:08:25;;;;;;;62.28;23.45;;;;;;;;;;5047811;28;20277;-71
2022/12/18 02:11:02;;;;;;;64.65;22.75;;;;;;;;;;5060870;28;20053;-71
2022/12/18 02:13:30;;;;;;;63.22;22.35;;;;;;;;;;5064187;28;20024;-72
2022/12/18 02:16:14;;;;;;;43.23;16.97;;;;;;;;;;5062305;28;20024;-72
2022/12/18 02:18:42;;;;;;;60.15;22.30;;;;;;;;;;5067035;28;20027;-72
2022/12/18 02:21:12;;;;;;;59.78;22.58;;;;;;;;;;5065572;28;20470;-72
2022/12/18 02:23:46;;;;;;;64.72;22.73;;;;;;;;;;5046041;28;20456;-72
2022/12/18 02:26:30;;;;;;;64.63;22.50;;;;;;;;;;5046714;28;20021;-71
2022/12/18 02:28:58;;;;;;;66.10;23.85;;;;;;;;;;5049032;28;20044;-70
2022/12/18 02:31:26;;;;;;;64.22;23.67;;;;;;;;;;5056663;28;20032;-72
2022/12/18 02:33:57;;;;;;;59.10;21.48;;;;;;;;;;5069917;28;20032;-72
2022/12/18 02:36:24;;;;;;;61.65;22.08;;;;;;;;;;5048284;28;20086;-73
2022/12/18 02:38:50;;;;;;;64.25;23.88;;;;;;;;;;5048718;28;20025;-73
2022/12/18 02:41:16;;;;;;;65.68;22.27;;;;;;;;;;5066310;28;20043;-73
2022/12/18 02:43:46;;;;;;;59.10;21.92;;;;;;;;;;5064733;28;20166;-73
2022/12/18 02:46:24;;;;;;;63.55;23.35;;;;;;;;;;5047399;28;20407;-73
2022/12/18 02:48:50;;;;;;;63.73;24.10;;;;;;;;;;5069629;28;20036;-73
2022/12/18 02:51:27;;;;;;;70.78;24.17;;;;;;;;;;5048664;28;20278;-73
2022/12/18 02:54:06;;;;;;;61.90;22.60;;;;;;;;;;5061710;28;20033;-71
2022/12/18 02:56:37;;;;;;;60.35;22.38;;;;;;;;;;5039481;28;20118;-73
2022/12/18 02:59:07;;;;;;;67.15;23.08;;;;;;;;;;5065500;28;20076;-73
2022/12/18 03:02:10;;;;;;;66.80;22.90;;;;;;;;;;5067509;28;20029;-72
2022/12/18 03:04:43;;;;;;;64.90;22.88;;;;;;;;;;4948771;28;20132;-73
2022/12/18 03:07:15;;;;;;;64.93;23.42;;;;;;;;;;4969312;28;20389;-73
2022/12/18 03:09:42;;;;;;;68.30;24.63;;;;;;;;;;4963040;28;20065;-73
2022/12/18 03:12:23;;;;;;;66.85;23.42;;;;;;;;;;4945872;28;20435;-73
2022/12/18 03:14:54;;;;;;;65.72;24.50;;;;;;;;;;4969347;28;20110;-73
2022/12/18 03:17:20;;;;;;;68.63;24.35;;;;;;;;;;4964169;28;20046;-73
2022/12/18 03:19:46;;;;;;;68.00;23.25;;;;;;;;;;4963651;28;20041;-73
2022/12/18 03:22:12;;;;;;;71.60;26.17;;;;;;;;;;4966748;28;20047;-72
2022/12/18 03:24:39;;;;;;;70.03;24.50;;;;;;;;;;4963074;28;20035;-72
2022/12/18 03:27:06;;;;;;;64.82;24.35;;;;;;;;;;4951650;28;20528;-72
2022/12/18 03:29:35;;;;;;;65.55;24.30;;;;;;;;;;4968163;28;20571;-71
2022/12/18 03:32:07;;;;;;;68.90;24.45;;;;;;;;;;4945392;28;20069;-72
2022/12/18 03:34:34;;;;;;;69.93;24.90;;;;;;;;;;4969321;28;20032;-72
2022/12/18 03:37:02;;;;;;;69.30;24.50;;;;;;;;;;5047306;28;20077;-72
2022/12/18 03:39:27;;;;;;;65.47;22.85;;;;;;;;;;5068513;28;20138;-72
2022/12/18 03:41:52;;;;;;;68.43;23.50;;;;;;;;;;5064528;28;20120;-72
2022/12/18 03:44:28;;;;;;;73.57;23.97;;;;;;;;;;5042463;28;20024;-71
2022/12/18 03:47:03;;;;;;;61.45;22.65;;;;;;;;;;5064667;28;20025;-72
2022/12/18 03:49:34;;;;;;;66.85;24.02;;;;;;;;;;5066460;28;20029;-72
2022/12/18 03:52:03;;;;;;;63.58;23.27;;;;;;;;;;5050500;28;20025;-72
2022/12/18 03:54:29;;;;;;;69.30;24.42;;;;;;;;;;5048037;28;20486;-72
2022/12/18 03:56:56;;;;;;;66.40;23.90;;;;;;;;;;5066103;28;20039;-72
2022/12/18 03:59:22;;;;;;;65.43;24.00;;;;;;;;;;5030954;28;20072;-71
2022/12/18 04:01:49;;;;;;;73.47;26.05;;;;;;;;;;5026664;28;20033;-72
2022/12/18 04:04:16;;;;;;;71.68;24.00;;;;;;;;;;5025826;28;20034;-71
2022/12/18 04:06:42;;;;;;;79.70;26.45;;;;;;;;;;5024201;28;20037;-72
2022/12/18 04:09:09;;;;;;;72.68;25.25;;;;;;;;;;5022676;28;20049;-71
2022/12/18 04:11:34;;;;;;;68.10;25.17;;;;;;;;;;5024107;28;20393;-72
2022/12/18 04:13:59;;;;;;;68.37;24.23;;;;;;;;;;5024572;28;20028;-72
2022/12/18 04:16:25;;;;;;;69.28;25.63;;;;;;;;;;5024152;28;20267;-71
2022/12/18 04:18:50;;;;;;;66.25;24.17;;;;;;;;;;5025509;28;20045;-72
2022/12/18 04:21:16;;;;;;;71.70;24.23;;;;;;;;;;5021063;28;20021;-73
2022/12/18 04:23:41;;;;;;;69.53;25.00;;;;;;;;;;5023010;28;20030;-72
2022/12/18 04:26:06;;;;;;;70.70;25.17;;;;;;;;;;5020769;28;20366;-72
2022/12/18 04:28:31;;;;;;;70.78;25.52;;;;;;;;;;5015149;28;20283;-73
2022/12/18 04:30:57;;;;;;;74.47;24.90;;;;;;;;;;5017441;28;20448;-72
2022/12/18 04:33:22;;;;;;;68.20;25.30;;;;;;;;;;5024583;28;20030;-72
2022/12/18 04:35:47;;;;;;;69.43;25.20;;;;;;;;;;5015005;28;20270;-72
2022/12/18 04:38:12;;;;;;;68.93;25.53;;;;;;;;;;5015471;28;20029;-73
2022/12/18 04:40:38;;;;;;;64.15;23.80;;;;;;;;;;5024982;28;20026;-72
2022/12/18 04:43:03;;;;;;;63.83;24.50;;;;;;;;;;5023709;28;20041;-72
2022/12/18 04:45:29;;;;;;;67.63;25.15;;;;;;;;;;5025726;28;20029;-72
2022/12/18 04:47:56;;;;;;;67.75;24.42;;;;;;;;;;5026908;28;20204;-71
2022/12/18 04:50:21;;;;;;;68.85;23.75;;;;;;;;;;5021303;28;20037;-72
2022/12/18 04:52:47;;;;;;;75.75;25.73;;;;;;;;;;5023507;28;20040;-72
2022/12/18 04:55:12;;;;;;;66.32;24.15;;;;;;;;;;5031674;28;20495;-72
2022/12/18 04:57:38;;;;;;;66.03;24.85;;;;;;;;;;5031229;28;20033;-72
2022/12/18 05:00:03;;;;;;;73.67;24.97;;;;;;;;;;5048298;28;20218;-71
2022/12/18 05:02:28;;;;;;;62.55;22.67;;;;;;;;;;5068944;28;20288;-71
2022/12/18 05:04:54;;;;;;;72.87;25.00;;;;;;;;;;5050154;28;20020;-71
2022/12/18 05:07:19;;;;;;;70.53;25.20;;;;;;;;;;5070137;28;20025;-72
2022/12/18 05:09:44;;;;;;;72.10;25.90;;;;;;;;;;5068536;28;20100;-71
2022/12/18 05:12:09;;;;;;;79.07;28.30;;;;;;;;;;5067804;28;20467;-72
2022/12/18 05:14:35;;;;;;;79.22;27.08;;;;;;;;;;5053646;28;20273;-71
2022/12/18 05:17:00;;;;;;;366.30;76.07;;;;;;;;;;5071096;28;20516;-73
2022/12/18 05:19:25;;;;;;;105.22;33.15;;;;;;;;;;5048977;28;20304;-71
2022/12/18 05:21:50;;;;;;;94.73;31.27;;;;;;;;;;5068586;28;20446;-71
2022/12/18 05:24:16;;;;;;;80.07;27.87;;;;;;;;;;5068423;28;20288;-71
2022/12/18 05:26:41;;;;;;;79.25;27.23;;;;;;;;;;5049613;28;20284;-71
2022/12/18 05:29:06;;;;;;;72.67;25.73;;;;;;;;;;5068497;28;20501;-74
2022/12/18 05:31:31;;;;;;;70.47;25.67;;;;;;;;;;5066842;28;20277;-71
2022/12/18 05:33:57;;;;;;;70.25;24.05;;;;;;;;;;5050273;28;20089;-73
2022/12/18 05:36:22;;;;;;;77.00;26.95;;;;;;;;;;5049425;28;20104;-71
2022/12/18 05:38:48;;;;;;;69.03;26.07;;;;;;;;;;5068231;28;20466;-73
2022/12/18 05:41:13;;;;;;;76.38;26.35;;;;;;;;;;5052891;28;20511;-72
2022/12/18 05:43:39;;;;;;;76.93;26.73;;;;;;;;;;5068118;28;20024;-72
2022/12/18 05:46:09;;;;;;;71.85;27.08;;;;;;;;;;5062109;28;20108;-71
2022/12/18 05:48:34;;;;;;;74.65;27.13;;;;;;;;;;5066213;28;20036;-72
2022/12/18 05:51:07;;;;;;;74.27;27.50;;;;;;;;;;5062972;28;20502;-71
2022/12/18 05:53:32;;;;;;;76.97;26.80;;;;;;;;;;5051039;28;20285;-71
2022/12/18 05:56:02;;;;;;;75.43;27.05;;;;;;;;;;5046315;28;20127;-71
2022/12/18 05:58:27;;;;;;;79.40;26.33;;;;;;;;;;5069951;28;20056;-70
2022/12/18 06:00:52;;;;;;;76.80;27.10;;;;;;;;;;5060329;28;20032;-71
2022/12/18 06:03:18;;;;;;;73.67;27.60;;;;;;;;;;5066405;28;20276;-71
2022/12/18 06:05:44;;;;;;;75.47;27.93;;;;;;;;;;5063225;28;20766;-71
2022/12/18 06:08:10;;;;;;;73.18;27.02;;;;;;;;;;5064352;28;20343;-73
2022/12/18 06:10:35;;;;;;;74.50;27.55;;;;;;;;;;5053168;28;20482;-73
2022/12/18 06:13:00;;;;;;;76.95;28.40;;;;;;;;;;5056656;28;20090;-73
2022/12/18 06:15:26;;;;;;;77.63;26.93;;;;;;;;;;5062135;28;20051;-73
2022/12/18 06:17:51;;;;;;;75.50;26.98;;;;;;;;;;5039266;28;20289;-72
2022/12/18 06:20:16;;;;;;;78.00;25.97;;;;;;;;;;5062631;28;20024;-72
2022/12/18 06:22:42;;;;;;;79.95;27.63;;;;;;;;;;5042836;28;20278;-72
2022/12/18 06:25:07;;;;;;;90.37;30.17;;;;;;;;;;5062698;28;20108;-72
2022/12/18 06:27:33;;;;;;;79.38;27.48;;;;;;;;;;5049372;28;20346;-73
2022/12/18 06:29:58;;;;;;;79.18;27.92;;;;;;;;;;5064996;28;20047;-75
2022/12/18 06:32:24;;;;;;;79.80;27.70;;;;;;;;;;5048908;28;20107;-75
2022/12/18 06:34:49;;;;;;;77.50;27.50;;;;;;;;;;5046076;28;20048;-73
2022/12/18 06:37:14;;;;;;;82.18;27.95;;;;;;;;;;5067945;28;20281;-74
2022/12/18 06:39:39;;;;;;;81.15;29.33;;;;;;;;;;5057684;28;20032;-74
2022/12/18 06:42:05;;;;;;;82.97;27.27;;;;;;;;;;5062957;28;20042;-73
2022/12/18 06:44:30;;;;;;;80.65;28.55;;;;;;;;;;5061077;28;20032;-74
2022/12/18 06:46:55;;;;;;;92.80;31.13;;;;;;;;;;5062790;28;20039;-73
2022/12/18 06:49:21;;;;;;;90.97;33.20;;;;;;;;;;5045535;28;20035;-73
2022/12/18 06:51:46;;;;;;;96.25;33.83;;;;;;;;;;5049889;28;20293;-74
2022/12/18 06:54:11;;;;;;;110.47;38.83;;;;;;;;;;5062092;28;20054;-72
2022/12/18 06:56:36;;;;;;;184.30;68.93;;;;;;;;;;5063528;28;20112;-74
2022/12/18 06:59:02;;;;;;;101.23;38.37;;;;;;;;;;5049835;28;20503;-74
2022/12/18 07:01:27;;;;;;;85.43;31.55;;;;;;;;;;5045458;28;20892;-74
2022/12/18 07:03:53;;;;;;;86.63;29.97;;;;;;;;;;5066583;28;20039;-73
2022/12/18 07:06:20;;;;;;;81.20;30.00;;;;;;;;;;5068444;28;20028;-73
2022/12/18 07:08:46;;;;;;;83.38;29.48;;;;;;;;;;5065453;28;20039;-73
2022/12/18 07:11:11;;;;;;;80.38;28.95;;;;;;;;;;5064656;28;20497;-74
2022/12/18 07:13:37;;;;;;;79.75;28.23;;;;;;;;;;5067564;28;20139;-73
2022/12/18 07:16:03;;;;;;;78.88;27.83;;;;;;;;;;5065753;28;20032;-73
2022/12/18 07:18:28;;;;;;;74.72;27.77;;;;;;;;;;5042115;28;20482;-74
2022/12/18 07:20:54;;;;;;;74.07;27.53;;;;;;;;;;5061067;28;20035;-73
2022/12/18 07:23:19;;;;;;;76.75;26.90;;;;;;;;;;5048084;28;20317;-73
2022/12/18 07:25:44;;;;;;;78.40;28.47;;;;;;;;;;5061306;28;20036;-73
2022/12/18 07:28:09;;;;;;;79.30;27.07;;;;;;;;;;5042337;28;20162;-75
2022/12/18 07:30:36;;;;;;;78.55;28.08;;;;;;;;;;5050716;28;20616;-75
2022/12/18 07:33:01;;;;;;;77.07;27.60;;;;;;;;;;5063430;28;20521;-73
2022/12/18 07:35:27;;;;;;;87.53;29.30;;;;;;;;;;5060863;28;20024;-74
2022/12/18 07:37:52;;;;;;;82.20;29.30;;;;;;;;;;5058435;28;20281;-75
2022/12/18 07:40:17;;;;;;;74.68;28.08;;;;;;;;;;5065814;28;20266;-74
2022/12/18 07:42:42;;;;;;;81.80;29.25;;;;;;;;;;5047890;28;20043;-74
2022/12/18 07:45:08;;;;;;;89.57;29.23;;;;;;;;;;5063590;28;20021;-74
2022/12/18 07:47:35;;;;;;;81.45;28.55;;;;;;;;;;5054156;28;20207;-74
2022/12/18 07:50:01;;;;;;;75.43;29.35;;;;;;;;;;5038810;28;20122;-74
2022/12/18 07:52:28;;;;;;;86.53;29.88;;;;;;;;;;5058175;28;20053;-74
2022/12/18 07:54:55;;;;;;;78.00;27.73;;;;;;;;;;5062198;28;20033;-74
2022/12/18 07:57:20;;;;;;;85.65;29.00;;;;;;;;;;5036334;28;20535;-74
2022/12/18 07:59:48;;;;;;;83.57;28.60;;;;;;;;;;5058700;28;20059;-74
2022/12/18 08:02:15;;;;;;;75.63;28.88;;;;;;;;;;5060679;28;20021;-74
2022/12/18 08:04:49;;;;;;;78.03;28.02;;;;;;;;;;5058517;28;20497;-74
2022/12/18 08:07:15;;;;;;;87.70;29.70;;;;;;;;;;5057038;28;20040;-74
2022/12/18 08:09:42;;;;;;;84.80;30.60;;;;;;;;;;5057428;28;20472;-74
2022/12/18 08:12:09;;;;;;;87.38;30.33;;;;;;;;;;5043816;28;20020;-74
2022/12/18 08:14:35;;;;;;;87.57;29.85;;;;;;;;;;5060446;28;20120;-73
2022/12/18 08:17:06;;;;;;;83.40;30.10;;;;;;;;;;5062040;28;20547;-73
2022/12/18 08:19:31;;;;;;;81.78;30.20;;;;;;;;;;5061243;28;20250;-73
2022/12/18 08:21:59;;;;;;;83.57;29.90;;;;;;;;;;5057948;28;20032;-73
2022/12/18 08:24:25;;;;;;;85.30;30.63;;;;;;;;;;5046415;28;20029;-73
2022/12/18 08:26:50;;;;;;;79.07;31.30;;;;;;;;;;5044417;28;20022;-73
2022/12/18 08:29:17;;;;;;;84.45;29.27;;;;;;;;;;5064151;28;20083;-75
2022/12/18 08:31:42;;;;;;;87.00;30.98;;;;;;;;;;5062191;28;20390;-74
2022/12/18 08:34:14;;;;;;;84.28;31.20;;;;;;;;;;5057428;28;20048;-71
2022/12/18 08:36:39;;;;;;;82.55;30.75;;;;;;;;;;5056738;28;20052;-70
2022/12/18 08:39:05;;;;;;;94.93;32.08;;;;;;;;;;5057377;28;20068;-71
2022/12/18 08:41:30;;;;;;;94.07;32.83;;;;;;;;;;5048912;28;20032;-72
2022/12/18 08:46:40;;;;;;;106.68;36.85;;;;;;;;;;5060564;28;20043;-70
2022/12/18 08:49:06;;;;;;;104.10;37.10;;;;;;;;;;5062253;28;20116;-71
2022/12/18 08:51:32;;;;;;;96.35;32.30;;;;;;;;;;5061450;28;20391;-71
2022/12/18 08:53:58;;;;;;;94.88;31.88;;;;;;;;;;5064463;28;20107;-71
2022/12/18 08:56:23;;;;;;;117.70;40.10;;;;;;;;;;5045066;28;20020;-71
2022/12/18 08:58:51;;;;;;;116.90;40.37;;;;;;;;;;5045074;28;20491;-71
2022/12/18 09:01:16;;;;;;;107.25;38.55;;;;;;;;;;5046415;28;20031;-71
2022/12/18 09:03:41;;;;;;;100.57;37.17;;;;;;;;;;5038617;28;20029;-71
2022/12/18 09:06:07;;;;;;;112.53;37.87;;;;;;;;;;5065623;28;20111;-71
2022/12/18 09:08:32;;;;;;;101.13;35.60;;;;;;;;;;5047820;28;20342;-74
2022/12/18 09:10:57;;;;;;;103.27;37.00;;;;;;;;;;5064077;28;20063;-73
2022/12/18 09:13:23;;;;;;;104.03;35.60;;;;;;;;;;5062285;28;20028;-74
2022/12/18 09:15:50;;;;;;;89.57;33.58;;;;;;;;;;5048768;28;20035;-73
2022/12/18 09:18:16;;;;;;;99.43;35.30;;;;;;;;;;5059883;28;20444;-73
2022/12/18 09:20:42;;;;;;;89.47;32.10;;;;;;;;;;5047011;28;20025;-73
2022/12/18 09:23:07;;;;;;;100.03;33.50;;;;;;;;;;5046743;28;20032;-73
2022/12/18 09:25:33;;;;;;;89.13;32.35;;;;;;;;;;5065580;28;20115;-73
2022/12/18 09:28:00;;;;;;;92.57;32.17;;;;;;;;;;5061909;28;20028;-73
2022/12/18 09:30:25;;;;;;;107.22;43.40;;;;;;;;;;5065828;28;20048;-73
2022/12/18 09:32:50;;;;;;;104.03;41.00;;;;;;;;;;5051819;28;20424;-73
2022/12/18 09:35:16;;;;;;;96.67;34.77;;;;;;;;;;5067388;28;20028;-73
2022/12/18 09:37:42;;;;;;;96.23;32.57;;;;;;;;;;5062231;28;20273;-73
2022/12/18 09:40:12;;;;;;;88.85;33.65;;;;;;;;;;5066266;28;20494;-72
2022/12/18 09:42:38;;;;;;;95.25;34.55;;;;;;;;;;5065269;28;20110;-72
2022/12/18 09:45:03;;;;;;;87.43;33.43;;;;;;;;;;5059044;28;20137;-72
2022/12/18 09:47:32;;;;;;;95.05;32.80;;;;;;;;;;5064948;28;20487;-72
2022/12/18 09:50:00;;;;;;;95.32;34.55;;;;;;;;;;5047019;28;20478;-72
2022/12/18 09:52:29;;;;;;;96.60;33.17;;;;;;;;;;5026439;28;20025;-72
2022/12/18 09:55:05;;;;;;;98.10;35.65;;;;;;;;;;5050198;28;20115;-72
2022/12/18 09:57:32;;;;;;;100.85;35.42;;;;;;;;;;5060269;28;20036;-71
2022/12/18 10:00:14;;;;;;;107.90;36.78;;;;;;;;;;5040822;28;20132;-72
2022/12/18 10:02:40;;;;;;;96.13;34.80;;;;;;;;;;5060260;28;20012;-72
2022/12/18 10:05:07;;;;;;;100.10;34.80;;;;;;;;;;5058720;28;20029;-71
2022/12/18 10:07:42;;;;;;;94.00;34.55;;;;;;;;;;5064914;28;20501;-72
2022/12/18 10:10:26;;;;;;;127.57;41.45;;;;;;;;;;5060689;28;20532;-71
2022/12/18 10:13:15;;;;;;;100.38;37.20;;;;;;;;;;5066119;28;20020;-71
2022/12/18 10:15:53;;;;;;;103.53;35.17;;;;;;;;;;5048786;28;20067;-71
2022/12/18 10:18:37;;;;;;;101.03;33.85;;;;;;;;;;5051515;28;20040;-72
2022/12/18 10:21:10;;;;;;;105.00;35.83;;;;;;;;;;5059997;28;20040;-72
2022/12/18 10:23:54;;;;;;;103.43;37.05;;;;;;;;;;5062552;28;20040;-70
2022/12/18 10:26:19;;;;;;;93.88;34.85;;;;;;;;;;5064493;28;20024;-72
2022/12/18 10:28:45;;;;;;;107.38;35.97;;;;;;;;;;5060863;28;20387;-73
2022/12/18 10:31:17;;;;;;;100.18;34.60;;;;;;;;;;5060406;28;20017;-73
2022/12/18 10:33:43;;;;;;;92.45;33.22;;;;;;;;;;5064432;28;20040;-73
2022/12/18 10:36:08;;;;;;;101.78;35.60;;;;;;;;;;5047907;28;20029;-73
2022/12/18 10:38:33;;;;;;;104.15;36.15;;;;;;;;;;5064195;28;20044;-72
2022/12/18 10:40:59;;;;;;;109.88;35.53;;;;;;;;;;5063640;28;20024;-72
2022/12/18 10:43:29;;;;;;;96.50;34.65;;;;;;;;;;5046618;28;20038;-73
2022/12/18 10:46:07;;;;;;;109.47;36.63;;;;;;;;;;5042082;28;20029;-72
2022/12/18 10:48:34;;;;;;;105.13;35.40;;;;;;;;;;5066167;28;20492;-72
2022/12/18 10:50:59;;;;;;;103.13;35.90;;;;;;;;;;5048085;28;20892;-72
2022/12/18 10:53:26;;;;;;;102.20;35.30;;;;;;;;;;5047660;28;20034;-73
2022/12/18 10:55:53;;;;;;;93.10;31.83;;;;;;;;;;5043407;28;20036;-72
2022/12/18 10:58:18;;;;;;;90.80;32.35;;;;;;;;;;5067576;28;20036;-72
2022/12/18 11:00:43;;;;;;;87.10;32.37;;;;;;;;;;5063742;28;20021;-72
2022/12/18 11:03:32;;;;;;;100.00;33.57;;;;;;;;;;5067154;28;20524;-72
2022/12/18 11:06:11;;;;;;;73.20;26.80;;;;;;;;;;5049556;28;20307;-71
2022/12/18 11:08:37;;;;;;;97.13;33.40;;;;;;;;;;5063784;28;20047;-72
2022/12/18 11:11:03;;;;;;;101.05;34.28;;;;;;;;;;5066050;28;20503;-74
2022/12/18 11:13:30;;;;;;;95.43;34.83;;;;;;;;;;5068078;28;20031;-73
2022/12/18 11:15:56;;;;;;;89.03;33.05;;;;;;;;;;5047931;28;20024;-72
2022/12/18 11:18:32;;;;;;;93.72;31.95;;;;;;;;;;5056633;28;20111;-73
2022/12/18 11:21:07;;;;;;;96.28;33.88;;;;;;;;;;5057125;28;20074;-72
2022/12/18 11:23:33;;;;;;;89.30;30.15;;;;;;;;;;5056715;28;20029;-72
2022/12/18 11:26:03;;;;;;;100.18;33.50;;;;;;;;;;5055439;28;20060;-72
2022/12/18 11:28:35;;;;;;;96.68;31.20;;;;;;;;;;5056455;28;20045;-71
2022/12/18 11:31:19;;;;;;;84.55;30.20;;;;;;;;;;5055974;28;20028;-73
2022/12/18 11:33:47;;;;;;;87.07;33.10;;;;;;;;;;5061847;28;20032;-72
2022/12/18 11:36:12;;;;;;;92.15;31.50;;;;;;;;;;5048631;28;20382;-72
2022/12/18 11:38:42;;;;;;;88.78;30.60;;;;;;;;;;5067737;28;20082;-72
2022/12/18 11:41:11;;;;;;;92.57;32.35;;;;;;;;;;5042389;28;20036;-72
2022/12/18 11:43:44;;;;;;;88.90;32.08;;;;;;;;;;5064980;28;20028;-71
2022/12/18 11:46:23;;;;;;;90.68;30.73;;;;;;;;;;5059380;28;20029;-72
2022/12/18 11:48:52;;;;;;;86.78;31.25;;;;;;;;;;5063539;28;20020;-71
2022/12/18 11:51:38;;;;;;;83.43;29.90;;;;;;;;;;5043752;28;20476;-72
2022/12/18 11:54:12;;;;;;;78.85;28.15;;;;;;;;;;5063882;28;20484;-72
2022/12/18 11:56:39;;;;;;;74.70;27.08;;;;;;;;;;5063159;28;20036;-72
2022/12/18 11:59:25;;;;;;;81.38;26.88;;;;;;;;;;5062003;28;20040;-71
2022/12/18 12:01:52;;;;;;;78.30;26.70;;;;;;;;;;5057496;28;20112;-73
2022/12/18 12:04:18;;;;;;;78.90;27.98;;;;;;;;;;5058633;28;20131;-71
2022/12/18 12:06:49;;;;;;;71.53;27.47;;;;;;;;;;5067575;28;20546;-72
2022/12/18 12:09:28;;;;;;;82.15;30.40;;;;;;;;;;5044880;28;20039;-72
2022/12/18 12:12:12;;;;;;;76.63;27.15;;;;;;;;;;5066697;28;20020;-71
2022/12/18 12:14:55;;;;;;;74.80;27.88;;;;;;;;;;5044037;28;20044;-73
2022/12/18 12:17:29;;;;;;;68.40;25.30;;;;;;;;;;5062482;28;20422;-71
2022/12/18 12:20:13;;;;;;;68.38;25.02;;;;;;;;;;5055630;28;20855;-70
2022/12/18 12:22:41;;;;;;;63.58;24.35;;;;;;;;;;5050515;28;20439;-72
2022/12/18 12:25:19;;;;;;;65.55;26.05;;;;;;;;;;5042210;28;20119;-70
2022/12/18 12:28:00;;;;;;;74.95;29.73;;;;;;;;;;5061922;28;20081;-71
2022/12/18 12:30:39;;;;;;;74.75;27.80;;;;;;;;;;5064839;28;20120;-72
2022/12/18 12:33:04;;;;;;;;;;;;;;;;;;5063302;28;20028;-71
2022/12/18 12:35:42;;;;;;;69.13;24.98;;;;;;;;;;5049378;28;20274;-73
2022/12/18 12:38:15;;;;;;;65.63;24.92;;;;;;;;;;5063362;28;20024;-70
2022/12/18 12:40:46;;;;;;;64.85;24.05;;;;;;;;;;5065591;28;20089;-72
2022/12/18 12:43:22;;;;;;;57.45;23.27;;;;;;;;;;5064662;28;20478;-71
2022/12/18 12:45:50;;;;;;;59.33;22.23;;;;;;;;;;5046841;28;20126;-71
2022/12/18 12:48:41;;;;;;;57.45;22.02;;;;;;;;;;5064362;28;20505;-71
2022/12/18 12:51:10;;;;;;;55.97;22.83;;;;;;;;;;5042069;28;20124;-71
2022/12/18 12:53:37;;;;;;;55.83;20.85;;;;;;;;;;5065988;28;20032;-72
2022/12/18 12:56:04;;;;;;;51.45;20.27;;;;;;;;;;5046491;28;20123;-72
2022/12/18 12:58:44;;;;;;;54.75;21.40;;;;;;;;;;5061383;28;20124;-70
2022/12/18 13:01:16;;;;;;;50.38;19.30;;;;;;;;;;5066691;28;20019;-72
2022/12/18 13:04:00;;;;;;;51.22;19.23;;;;;;;;;;5064570;28;20024;-73
2022/12/18 13:06:31;;;;;;;53.15;20.83;;;;;;;;;;5065161;28;20024;-72
2022/12/18 13:08:57;;;;;;;54.30;21.70;;;;;;;;;;5063780;28;20043;-71
2022/12/18 13:14:12;;;;;;;;;;;;;;;;;;5061266;28;20032;-70
2022/12/18 13:16:37;;;;;;;46.55;19.98;;;;;;;;;;5065556;28;19912;-70
2022/12/18 13:19:02;;;;;;;53.67;20.13;;;;;;;;;;5041825;28;21335;-71
2022/12/18 13:21:29;;;;;;;55.20;21.08;;;;;;;;;;5065653;28;20316;-71
2022/12/18 13:23:55;;;;;;;60.58;23.05;;;;;;;;;;5047759;28;20123;-70
2022/12/18 13:26:23;;;;;;;64.32;24.23;;;;;;;;;;5060620;28;20139;-71
2022/12/18 13:28:50;;;;;;;57.45;22.65;;;;;;;;;;5069973;28;20051;-71
2022/12/18 13:31:28;;;;;;;55.92;20.60;;;;;;;;;;5050637;28;20046;-72
2022/12/18 13:34:09;;;;;;;51.22;20.90;;;;;;;;;;5053142;28;20514;-71
2022/12/18 13:36:34;;;;;;;59.40;23.48;;;;;;;;;;5065924;28;20055;-72
2022/12/18 13:39:18;;;;;;;53.28;22.17;;;;;;;;;;5066474;28;20479;-72
2022/12/18 13:41:48;;;;;;;56.28;22.23;;;;;;;;;;5046651;28;20313;-70
2022/12/18 13:44:25;;;;;;;60.03;22.13;;;;;;;;;;5066375;28;20028;-69
2022/12/18 13:46:51;;;;;;;57.60;22.15;;;;;;;;;;5065556;28;20111;-69
2022/12/18 13:49:24;;;;;;;54.92;22.02;;;;;;;;;;5065877;28;20452;-72
2022/12/18 13:51:51;;;;;;;55.70;21.33;;;;;;;;;;5069787;28;20020;-71
2022/12/18 13:54:24;;;;;;;56.80;23.13;;;;;;;;;;5049073;28;20656;-71
2022/12/18 13:56:49;;;;;;;57.17;22.27;;;;;;;;;;5065280;28;20031;-72
2022/12/18 13:59:16;;;;;;;51.43;19.93;;;;;;;;;;5057104;28;20565;-72
2022/12/18 14:01:42;;;;;;;57.13;22.23;;;;;;;;;;5061338;28;20739;-72
2022/12/18 14:04:11;;;;;;;50.80;19.98;;;;;;;;;;5059502;28;20013;-72
2022/12/18 14:06:37;;;;;;;54.65;22.40;;;;;;;;;;5057206;28;20032;-71
2022/12/18 14:09:02;;;;;;;71.55;28.40;;;;;;;;;;5057454;28;20059;-71
2022/12/18 14:11:27;;;;;;;66.13;25.05;;;;;;;;;;5057238;28;20322;-71
2022/12/18 14:13:53;;;;;;;58.42;22.92;;;;;;;;;;5057312;28;20028;-70
2022/12/18 14:16:18;;;;;;;58.73;23.47;;;;;;;;;;5057493;28;20122;-71
2022/12/18 14:18:43;;;;;;;55.70;21.88;;;;;;;;;;5058148;28;20293;-72
2022/12/18 14:21:16;;;;;;;52.38;20.98;;;;;;;;;;5056910;28;20028;-72
2022/12/18 14:23:42;;;;;;;56.10;20.95;;;;;;;;;;5058681;28;20107;-71
2022/12/18 14:26:19;;;;;;;54.50;21.73;;;;;;;;;;5061627;28;20025;-72
2022/12/18 14:28:45;;;;;;;99.22;35.45;;;;;;;;;;5057985;28;20365;-71